• Join FlightAware (Why Join?)
  • Login
  • US Flag 
04:28PM EDT


 

Airport Tracker/Info


-or-


 

Live Flight TrackerFlight Track Log ✈ RPA3242 ✈ 21-May-2013 ✈ KDTW - KPHL

Flight Track Log - Related Links

Times and Time Zones

All times are in EDT time to prevent confusion due to time zone crossing. See the RPA3242 flight status page for this flight to view local times or setup timezone preferences in your user account.

Time Position Orientation Groundspeed Altitude Reporting Facility
EDT Latitude Longitude Course Direction KTS MPH feet Rate Location/Type
06:26PM 42.2036 -83.3556 90° East 141 162 1,300  Level Cleveland Center
06:27PM 42.1850 -83.3547 178° South 149 171 2,300 1,680 Climbing Cleveland Center
06:28PM 42.2167 -82.9620 90° East  Level FlightAware Approximate
06:28PM 42.1289 -83.3439 172° South 233 268 3,900  Level Cleveland Center
06:29PM 42.2167 -82.8310 90° East  Level FlightAware Approximate
06:29PM 42.0633 -83.2961 152° Southeast 290 334 7,300  Level Cleveland Center
06:30PM 42.2167 -82.7001 90° East  Level FlightAware Approximate
06:30PM 42.0783 -83.1933 79° East 317 365 10,000  Level Cleveland Center
06:30PM 42.0878 -83.1461 75° East 424 488 10,000 960 Level Cleveland Center
06:31PM 42.2167 -82.5691 90° East  Level FlightAware Approximate
06:31PM 42.1136 -83.0100 76° East 401 461 11,500  Level Cleveland Center
06:32PM 42.1436 -82.8683 74° East 385 443 13,600 2,340 Climbing Cleveland Center
06:33PM 42.1694 -82.7208 77° East 392 451 16,200 2,460 Climbing Cleveland Center
06:34PM 42.1992 -82.5703 75° East 402 463 18,600 2,100 Climbing Cleveland Center
06:35PM 42.2206 -82.4083 80° East 421 484 20,400 1,860 Climbing Cleveland Center
06:36PM 42.2106 -82.2456 95° East 426 490 22,400 1,980 Climbing Cleveland Center
06:37PM 42.1986 -82.0603 95° East 448 516 24,400 1,680 Climbing Cleveland Center
06:38PM 42.1567 -81.9081 110° East 436 502 25,800 1,200 Climbing Cleveland Center
06:39PM 42.0764 -81.8056 137° Southeast 436 502 26,900 600 Climbing Cleveland Center
06:40PM 41.9794 -81.6978 140° Southeast 443 510 27,000  Climbing Cleveland Center
06:41PM 41.8867 -81.5872 138° Southeast 450 518 27,000 120 Level Cleveland Center
06:42PM 41.7917 -81.4800 140° Southeast 450 518 27,300 660 Climbing Cleveland Center
06:43PM 41.6947 -81.3700 140° Southeast 450 518 28,400 1,320 Climbing Cleveland Center
06:44PM 41.5911 -81.2494 139° Southeast 455 524 30,000 1,440 Climbing Cleveland Center
06:45PM 41.4958 -81.1375 139° Southeast 455 524 31,300 1,260 Climbing Cleveland Center
06:46PM 41.4108 -81.0178 133° Southeast 455 524 32,600 840 Climbing Cleveland Center
06:47PM 41.3239 -80.8983 134° Southeast 448 516 33,000 180 Climbing Cleveland Center
06:48PM 41.2364 -80.7764 134° Southeast 448 516 33,000  Level Cleveland Center
06:49PM 41.1511 -80.6547 133° Southeast 448 516 33,000  Level Cleveland Center
06:50PM 41.0678 -80.5392 134° Southeast 448 516 33,000  Level Cleveland Center
06:51PM 40.9800 -80.4208 134° Southeast 448 516 33,000  Level Cleveland Center
06:52PM 40.8944 -80.3003 133° Southeast 448 516 33,000  Level Cleveland Center
06:53PM 40.8106 -80.1769 132° Southeast 448 516 33,000  Level Cleveland Center
06:54PM 40.7581 -80.0294 115° Southeast 448 516 33,000  Level Cleveland Center
06:55PM 40.7069 -79.8764 114° Southeast 448 516 33,000  Level Cleveland Center
06:56PM 40.6497 -79.7292 117° Southeast 448 516 33,000  Level Cleveland Center
06:57PM 40.5964 -79.5822 116° Southeast 448 516 33,000  Level Cleveland Center
06:58PM 40.5469 -79.4272 113° Southeast 443 510 33,000  Level Cleveland Center
06:59PM 40.5161 -79.2722 105° East 449 517 33,000  Level Cleveland Center
07:00PM 40.4956 -79.1278 101° East 444 511 33,000  Level Cleveland Center
07:01PM 40.4706 -78.9700 102° East 444 511 33,000  Level Cleveland Center
07:02PM 40.4472 -78.8069 101° East 449 517 33,000  Level Cleveland Center
07:03PM 40.4217 -78.6467 102° East 449 517 33,000 -960 Level Cleveland Center
07:05PM 40.3758 -78.3650 102° East 444 511 30,500 -1,800 Descending New York Center
07:06PM 40.3522 -78.2097 101° East 439 505 28,200 -2,220 Descending New York Center
07:07PM 40.3281 -78.0628 102° East 425 489 26,100 -1,620 Descending New York Center
07:08PM 40.3122 -77.9142 98° East 419 482 25,000 -1,320 Descending New York Center
07:09PM 40.3108 -77.7642 91° East 414 476 23,600 -1,380 Descending New York Center
07:10PM 40.3092 -77.6494 91° East 409 471 22,400 -1,440 Descending New York Center
07:11PM 40.3086 -77.4753 90° East 403 464 20,800 -1,500 Descending New York Center
07:12PM 40.3061 -77.3361 91° East 398 458 19,400 -900 Descending New York Center
07:13PM 40.3033 -77.1969 91° East 386 444 19,000 -240 Descending New York Center
07:14PM 40.2983 -77.0578 93° East 386 444 19,000  Level New York Center
07:15PM 40.2761 -76.9222 102° East 386 444 19,000  Level New York Center
07:16PM 40.2386 -76.8022 112° Southeast 380 437 19,000 -660 Level New York Center
07:17PM 40.2097 -76.6717 106° East 380 437 17,700 -1,380 Descending New York Center
07:18PM 40.1869 -76.5422 103° East 380 437 16,300 -1,380 Descending New York Center
07:19PM 40.1731 -76.4025 97° East 356 410 15,000 -1,140 Descending New York Center
07:20PM 40.1575 -76.2869 100° East 351 404 14,100 -1,260 Descending New York Center
07:21PM 40.1367 -76.1550 102° East 346 398 12,500 -1,440 Descending New York Center
07:22PM 40.1228 -76.0453 99° East 336 387 11,200 -1,380 Descending New York Center
07:23PM 40.1053 -75.9219 100° East 326 375 9,800 -1,320 Descending New York Center
07:24PM 40.0928 -75.8233 99° East 308 354 8,700 -1,320 Descending New York Center
07:25PM 40.0789 -75.7083 99° East 296 341 7,300 -1,320 Descending New York Center
07:26PM 40.0744 -75.6158 94° East 296 341 6,200 -660 Descending New York Center
07:27PM 40.0686 -75.5042 94° East 291 335 6,000 -120 Descending New York Center
07:28PM 40.0639 -75.4089 94° East 286 329 6,000  Level New York Center
07:29PM 40.0539 -75.2969 97° East 286 329 6,000  Level New York Center
07:29PM 40.0333 -75.2333 113° Southeast 287 330 6,000  Level Philadelphia TRACON
07:30PM 40.0167 -75.1500 105° East 282 325 6,000  Level Philadelphia TRACON
07:31PM 40.0000 -75.0667 105° East 206 237 6,000 -480 Level Philadelphia TRACON
07:32PM 40.0167 -75.0000 72° East 215 247 5,000 -1,020 Descending Philadelphia TRACON
07:33PM 39.9833 -74.9500 131° Southeast 178 205 3,900 -1,020 Descending Philadelphia TRACON
07:34PM 39.9333 -74.9833 207° Southwest 161 185 3,000 -480 Descending Philadelphia TRACON
07:35PM 39.9167 -75.0333 247° West 168 193 3,000 -420 Level Philadelphia TRACON
07:36PM 39.9000 -75.0833 247° West 164 189 2,300 -780 Descending Philadelphia TRACON